TAF Text Data
IDs:
Format:
Raw Decoded Include METAR

Data at: 1022 UTC 17 Feb 2019

KVLD 170521Z 1706/1806 21004KT 4SM BR OVC005
  FM170700 17004KT 1/2SM FG OVC004
  FM171400 18004KT 2SM BR OVC007
  FM171600 20010KT P6SM BKN025
  FM180000 18007KT P6SM OVC015